Time;durP1;ratioP1;P1;durP2;ratioP2;P2;SDS_P1;SDS_P2;PMS_P1;PMS_P2;Temp;Humidity;BMP_temperature;BMP_pressure;BME280_temperature;BME280_humidity;BME280_pressure;Samples;Min_cycle;Max_cycle;Signal;HPM_P1;HPM_P2
2023/08/20 00:02:19;;;;;;;6.63;5.05;;;;;;;23.97;44.88;101624.34;5096155;28;20036;-84
2023/08/20 00:04:48;;;;;;;6.53;5.43;;;;;;;23.91;44.98;101625.13;5075194;28;20055;-86
2023/08/20 00:07:19;;;;;;;7.18;4.93;;;;;;;23.94;45.07;101624.72;5096690;28;20093;-84
2023/08/20 00:09:47;;;;;;;6.88;5.15;;;;;;;23.88;44.77;101622.75;5079680;28;20040;-83
2023/08/20 00:12:15;;;;;;;6.22;4.93;;;;;;;23.89;45.12;101623.63;5078159;28;20124;-85
2023/08/20 00:14:54;;;;;;;5.88;4.60;;;;;;;23.89;45.28;101621.69;5083680;28;20036;-83
2023/08/20 00:17:24;;;;;;;5.85;4.32;;;;;;;23.87;45.06;101628.56;5088462;28;20139;-84
2023/08/20 00:19:53;;;;;;;6.70;4.95;;;;;;;23.84;45.04;101627.03;5072378;28;20085;-84
2023/08/20 00:22:25;;;;;;;7.47;5.20;;;;;;;23.88;45.31;101633.09;5092602;28;20094;-84
2023/08/20 00:24:54;;;;;;;6.85;5.45;;;;;;;23.82;45.02;101631.09;5079231;28;20078;-84
2023/08/20 00:27:23;;;;;;;7.32;5.00;;;;;;;23.81;44.81;101627.44;5074249;28;20123;-84
2023/08/20 00:29:51;;;;;;;7.05;4.78;;;;;;;23.79;45.15;101629.56;5089376;28;20040;-84
2023/08/20 00:32:19;;;;;;;7.10;5.22;;;;;;;23.77;45.04;101621.38;5070872;28;20722;-86
2023/08/20 00:34:48;;;;;;;9.10;5.07;;;;;;;23.74;45.20;101626.50;5095359;28;20044;-84
2023/08/20 00:37:17;;;;;;;7.28;5.55;;;;;;;23.73;44.84;101627.56;5073464;28;20035;-85
2023/08/20 00:39:47;;;;;;;6.03;4.72;;;;;;;23.74;45.13;101620.91;5075702;28;20058;-85
2023/08/20 00:42:15;;;;;;;6.97;5.03;;;;;;;23.70;45.38;101622.38;5075454;28;20051;-83
2023/08/20 00:44:45;;;;;;;6.43;5.05;;;;;;;23.70;45.24;101616.78;5080494;28;20032;-85
2023/08/20 00:47:14;;;;;;;8.25;5.05;;;;;;;23.67;45.25;101625.56;5073554;28;20131;-85
2023/08/20 00:49:43;;;;;;;7.05;5.00;;;;;;;23.67;45.61;101626.41;5093944;28;20142;-84
2023/08/20 00:52:13;;;;;;;7.18;4.97;;;;;;;23.67;45.46;101618.03;5100714;28;20071;-82
2023/08/20 00:54:42;;;;;;;6.95;5.13;;;;;;;23.66;45.37;101613.50;5104774;28;20292;-81
2023/08/20 00:57:14;;;;;;;6.63;5.22;;;;;;;23.68;45.28;101603.00;5095224;28;20036;-82
2023/08/20 00:59:43;;;;;;;6.07;5.03;;;;;;;23.63;45.69;101605.56;5082653;28;20048;-84
2023/08/20 01:02:11;;;;;;;7.03;5.00;;;;;;;23.67;46.09;101611.59;5103233;28;20133;-84
2023/08/20 01:04:39;;;;;;;7.03;5.13;;;;;;;23.64;45.92;101612.88;5077315;28;20109;-83
2023/08/20 01:07:15;;;;;;;5.88;4.78;;;;;;;23.68;45.63;101616.09;5072771;28;20044;-82
2023/08/20 01:09:51;;;;;;;6.85;5.05;;;;;;;23.67;46.21;101618.03;5081240;28;20075;-82
2023/08/20 01:12:22;;;;;;;7.40;5.20;;;;;;;23.65;45.86;101622.13;5098004;28;20127;-84
2023/08/20 01:14:50;;;;;;;7.47;5.10;;;;;;;23.64;45.64;101617.59;5082364;28;20059;-84
2023/08/20 01:17:18;;;;;;;7.55;5.70;;;;;;;23.64;45.70;101618.47;5078122;28;20044;-84
2023/08/20 01:19:47;;;;;;;9.10;5.43;;;;;;;23.63;45.81;101619.53;5076147;28;20389;-83
2023/08/20 01:23:06;;;;;;;6.65;5.20;;;;;;;23.60;46.51;101613.47;5064322;28;20040;-84
2023/08/20 01:26:01;;;;;;;6.35;5.25;;;;;;;23.62;46.61;101615.00;5043893;28;20062;-84
2023/08/20 01:28:32;;;;;;;8.65;5.90;;;;;;;23.61;46.00;101615.19;5066026;28;20048;-85
2023/08/20 01:31:02;;;;;;;6.78;5.88;;;;;;;23.61;46.12;101621.66;5090479;28;20065;-84
2023/08/20 01:33:31;;;;;;;7.28;5.55;;;;;;;23.60;46.12;101616.25;5075761;28;20046;-85
2023/08/20 01:35:59;;;;;;;7.30;5.53;;;;;;;23.58;46.00;101616.44;5071667;28;20045;-84
2023/08/20 01:38:27;;;;;;;6.63;5.30;;;;;;;23.57;45.82;101619.47;5075122;28;20060;-83
2023/08/20 01:40:56;;;;;;;8.32;5.95;;;;;;;23.58;45.91;101624.00;5077293;28;20044;-83
2023/08/20 01:43:24;;;;;;;6.95;5.50;;;;;;;23.57;46.13;101622.28;5074823;28;20047;-84
2023/08/20 01:45:53;;;;;;;7.90;5.53;;;;;;;23.58;46.30;101629.59;5089830;28;20041;-84
2023/08/20 01:48:22;;;;;;;7.63;5.38;;;;;;;23.54;46.13;101626.31;5064190;28;20040;-83
2023/08/20 01:50:51;;;;;;;6.75;5.32;;;;;;;23.56;46.27;101631.72;5103475;28;20063;-84
2023/08/20 01:53:20;;;;;;;7.00;5.55;;;;;;;23.52;46.31;101630.38;5076576;28;20512;-84
2023/08/20 01:55:48;;;;;;;7.10;5.13;;;;;;;23.53;46.20;101629.31;5072962;28;20048;-83
2023/08/20 01:58:16;;;;;;;7.10;5.07;;;;;;;23.52;46.14;101633.16;5076540;28;20035;-84
2023/08/20 02:00:46;;;;;;;6.50;5.15;;;;;;;23.52;46.34;101639.63;5074519;28;20032;-83
2023/08/20 02:03:15;;;;;;;6.05;4.82;;;;;;;23.52;46.28;101641.53;5079185;28;20052;-84
2023/08/20 02:05:43;;;;;;;7.80;5.53;;;;;;;23.48;46.11;101640.25;5080719;28;20043;-84
2023/08/20 02:08:11;;;;;;;6.20;5.00;;;;;;;23.49;46.29;101639.19;5072194;28;20583;-83
2023/08/20 02:10:39;;;;;;;7.32;5.60;;;;;;;23.46;46.26;101634.84;5071935;28;20568;-85
2023/08/20 02:13:08;;;;;;;6.40;5.25;;;;;;;23.45;46.30;101638.69;5072426;28;20055;-83
2023/08/20 02:15:36;;;;;;;6.70;5.20;;;;;;;23.46;45.91;101634.84;5074187;28;20119;-84
2023/08/20 02:18:05;;;;;;;6.38;5.15;;;;;;;23.44;46.24;101636.97;5072623;28;20060;-85
2023/08/20 02:20:35;;;;;;;6.85;5.43;;;;;;;23.44;46.43;101647.28;5072178;28;20071;-84
2023/08/20 02:23:03;;;;;;;6.60;4.90;;;;;;;23.42;46.21;101647.47;5075444;28;20040;-85
2023/08/20 02:25:32;;;;;;;6.43;5.15;;;;;;;23.42;46.29;101652.19;5097620;28;20036;-85
2023/08/20 02:28:00;;;;;;;6.80;4.85;;;;;;;23.42;46.38;101649.41;5097422;28;20442;-85
2023/08/20 02:30:28;;;;;;;6.95;5.22;;;;;;;23.40;46.23;101652.41;5076410;28;20076;-86
2023/08/20 02:32:56;;;;;;;5.75;4.70;;;;;;;23.38;46.00;101658.19;5079051;28;20047;-84
2023/08/20 02:35:24;;;;;;;6.78;5.60;;;;;;;23.37;46.29;101672.34;5100965;28;20044;-83
2023/08/20 02:38:03;;;;;;;7.07;5.55;;;;;;;23.40;46.72;101677.56;5096490;28;20047;-84
2023/08/20 02:40:40;;;;;;;6.97;5.32;;;;;;;23.36;46.66;101685.47;5090929;28;20035;-85
2023/08/20 02:43:08;;;;;;;5.78;4.85;;;;;;;23.34;46.44;101681.13;5105247;28;20126;-85
2023/08/20 02:45:41;;;;;;;6.30;5.03;;;;;;;23.38;46.52;101685.25;5072998;28;20044;-85
2023/08/20 02:48:11;;;;;;;6.88;5.20;;;;;;;23.33;46.73;101682.22;5083901;28;20044;-86
2023/08/20 02:50:39;;;;;;;6.35;4.80;;;;;;;23.32;46.74;101667.38;5083080;28;20137;-84
2023/08/20 02:53:08;;;;;;;9.50;5.80;;;;;;;23.35;46.76;101680.06;5081520;28;20055;-85
2023/08/20 02:55:37;;;;;;;6.32;5.13;;;;;;;23.31;46.85;101671.25;5076487;28;20047;-84
2023/08/20 02:58:07;;;;;;;7.82;5.22;;;;;;;23.32;46.94;101667.38;5088365;28;20046;-84
2023/08/20 03:00:36;;;;;;;7.53;5.32;;;;;;;23.32;47.00;101669.31;5075625;28;20036;-84
2023/08/20 03:03:08;;;;;;;7.78;5.85;;;;;;;23.31;46.84;101671.25;5101070;28;20046;-84
2023/08/20 03:05:38;;;;;;;6.70;5.35;;;;;;;23.28;46.90;101665.16;5068016;28;20987;-84
2023/08/20 03:08:08;;;;;;;7.35;5.22;;;;;;;23.29;46.79;101676.16;5093196;28;20074;-85
2023/08/20 03:10:36;;;;;;;6.70;5.25;;;;;;;23.28;46.79;101677.22;5072245;28;20040;-84
2023/08/20 03:13:04;;;;;;;6.80;5.47;;;;;;;23.28;46.88;101680.00;5090973;28;20046;-83
2023/08/20 03:15:32;;;;;;;8.50;5.80;;;;;;;23.28;46.93;101688.38;5088636;28;20040;-83
2023/08/20 03:18:00;;;;;;;8.25;5.65;;;;;;;23.27;46.94;101691.38;5090173;28;20627;-82
2023/08/20 03:20:30;;;;;;;8.30;5.47;;;;;;;23.25;46.81;101685.97;5080064;28;20161;-84
2023/08/20 03:22:59;;;;;;;7.95;5.70;;;;;;;23.26;46.97;101686.84;5077206;28;20470;-83
2023/08/20 03:25:28;;;;;;;7.72;6.15;;;;;;;23.24;46.87;101691.78;5083253;28;20040;-82
2023/08/20 03:27:56;;;;;;;8.23;5.93;;;;;;;23.24;47.12;101697.38;5082988;28;20410;-83
2023/08/20 03:30:24;;;;;;;9.02;6.53;;;;;;;23.21;46.88;101689.38;5067869;28;20044;-84
2023/08/20 03:32:52;;;;;;;8.00;6.05;;;;;;;23.21;46.93;101686.59;5079016;28;20040;-85
2023/08/20 03:35:21;;;;;;;7.30;5.75;;;;;;;23.19;47.08;101689.56;5080646;28;20590;-85
2023/08/20 03:37:49;;;;;;;7.28;5.75;;;;;;;23.18;47.08;101693.41;5076951;28;20422;-84
2023/08/20 03:40:19;;;;;;;6.55;5.40;;;;;;;23.16;46.99;101692.78;5078786;28;21565;-83
2023/08/20 03:42:49;;;;;;;5.90;4.65;;;;;;;23.19;46.69;101691.50;5099517;28;20552;-83
2023/08/20 03:45:17;;;;;;;7.32;4.85;;;;;;;23.15;47.09;101692.94;5075950;28;20047;-83
2023/08/20 03:47:46;;;;;;;7.55;5.30;;;;;;;23.14;46.93;101688.41;5076089;28;20044;-82
2023/08/20 03:50:16;;;;;;;7.40;5.03;;;;;;;23.15;47.21;101696.59;5091686;28;20071;-84
2023/08/20 03:52:45;;;;;;;8.02;5.10;;;;;;;23.12;47.05;101691.38;5076051;28;20063;-82
2023/08/20 03:55:13;;;;;;;7.78;5.28;;;;;;;23.14;46.79;101694.84;5076037;28;20094;-84
2023/08/20 03:57:47;;;;;;;6.78;4.43;;;;;;;23.13;47.28;101695.91;5078663;28;20507;-83
2023/08/20 04:00:17;;;;;;;7.80;4.60;;;;;;;23.13;46.92;101709.88;5089363;28;20040;-82
2023/08/20 04:02:45;;;;;;;5.38;4.65;;;;;;;23.09;46.77;101691.78;5084079;28;20712;-85
2023/08/20 04:05:14;;;;;;;6.80;4.63;;;;;;;23.08;46.88;101690.06;5075253;28;20090;-84
2023/08/20 04:07:42;;;;;;;7.32;4.40;;;;;;;23.08;46.91;101703.16;5076613;28;20474;-85
2023/08/20 04:10:10;;;;;;;7.85;4.70;;;;;;;23.07;46.79;101695.84;5102325;28;20084;-85
2023/08/20 04:12:38;;;;;;;6.63;4.78;;;;;;;23.07;46.83;101712.59;5080250;28;20082;-84
2023/08/20 04:15:07;;;;;;;5.75;4.47;;;;;;;23.06;46.79;101714.53;5089871;28;20180;-83
2023/08/20 04:17:37;;;;;;;7.60;4.90;;;;;;;23.07;46.56;101698.63;5084591;28;20044;-84
2023/08/20 04:20:09;;;;;;;6.55;4.45;;;;;;;23.05;46.50;101711.91;5113712;28;20074;-82
2023/08/20 04:22:38;;;;;;;6.80;4.80;;;;;;;23.00;46.99;101716.16;5123278;28;20036;-83
2023/08/20 04:25:06;;;;;;;6.72;5.13;;;;;;;23.01;46.86;101719.81;5106257;28;20156;-83
2023/08/20 04:27:35;;;;;;;6.65;4.80;;;;;;;22.99;46.66;101720.03;5076124;28;20131;-84
2023/08/20 04:30:05;;;;;;;6.43;4.90;;;;;;;22.98;46.42;101707.13;5080188;28;20418;-83
2023/08/20 04:32:33;;;;;;;7.57;4.93;;;;;;;22.99;46.72;101708.00;5067360;28;20112;-83
2023/08/20 04:35:03;;;;;;;5.68;4.40;;;;;;;22.99;46.47;101713.56;5072892;28;20051;-83
2023/08/20 04:37:33;;;;;;;6.78;4.88;;;;;;;22.93;46.45;101711.53;5076805;28;20039;-83
2023/08/20 04:40:04;;;;;;;7.85;4.95;;;;;;;22.94;46.61;101713.28;5071400;28;20113;-82
2023/08/20 04:42:32;;;;;;;6.45;4.72;;;;;;;22.94;46.83;101713.28;5072872;28;20097;-84
2023/08/20 04:45:00;;;;;;;5.95;4.65;;;;;;;22.93;46.84;101719.91;5073188;28;20127;-83
2023/08/20 04:47:29;;;;;;;6.65;4.82;;;;;;;22.90;46.59;101726.78;5096387;28;20415;-83
2023/08/20 04:50:01;;;;;;;6.35;4.90;;;;;;;22.89;46.71;101727.84;5093388;28;20050;-83
2023/08/20 04:52:31;;;;;;;6.65;4.53;;;;;;;22.90;46.64;101717.53;5076712;28;20043;-83
2023/08/20 04:54:59;;;;;;;6.93;5.25;;;;;;;22.88;46.96;101723.31;5080759;28;20484;-84
2023/08/20 04:57:27;;;;;;;6.55;4.85;;;;;;;22.89;46.41;101724.19;5093461;28;20051;-82
2023/08/20 04:59:56;;;;;;;7.50;5.20;;;;;;;22.88;46.77;101720.53;5080034;28;20500;-83
2023/08/20 05:02:37;;;;;;;6.85;5.22;;;;;;;22.85;46.61;101722.81;5079677;28;20217;-83
2023/08/20 05:05:06;;;;;;;6.93;4.85;;;;;;;22.87;46.64;101731.88;5100335;28;20040;-82
2023/08/20 05:07:36;;;;;;;7.32;4.90;;;;;;;22.87;46.70;101729.94;5097349;28;20077;-84
2023/08/20 05:10:06;;;;;;;7.70;5.07;;;;;;;22.86;46.73;101730.13;5073260;28;20044;-82
2023/08/20 05:12:34;;;;;;;8.23;5.53;;;;;;;22.85;46.61;101736.78;5077382;28;20036;-82
2023/08/20 05:15:02;;;;;;;6.70;4.60;;;;;;;22.84;46.50;101726.66;5076049;28;20124;-82
2023/08/20 05:17:30;;;;;;;6.43;4.75;;;;;;;22.83;46.22;101727.75;5073105;28;20040;-82
2023/08/20 05:19:58;;;;;;;6.95;4.93;;;;;;;22.82;46.20;101728.81;5076508;28;20060;-83
2023/08/20 05:22:27;;;;;;;8.23;4.93;;;;;;;22.81;46.23;101730.75;5078203;28;20040;-84
2023/08/20 05:24:56;;;;;;;7.70;5.25;;;;;;;22.82;46.55;101728.81;5092973;28;20040;-83
2023/08/20 05:27:24;;;;;;;6.80;5.07;;;;;;;22.79;46.48;101730.06;5069907;28;20097;-84
2023/08/20 05:29:52;;;;;;;6.57;5.05;;;;;;;22.80;46.97;101739.28;5073777;28;20041;-82
2023/08/20 05:32:23;;;;;;;7.80;5.15;;;;;;;22.78;46.71;101733.03;5079595;28;20048;-85
2023/08/20 05:34:56;;;;;;;6.45;4.38;;;;;;;22.80;46.68;101742.09;5071046;28;20051;-84
2023/08/20 05:53:49;;;;;;;6.63;4.68;;;;;;;22.75;46.80;101744.59;5061753;28;20101;-81
2023/08/20 05:56:17;;;;;;;6.53;5.13;;;;;;;22.75;46.73;101739.03;5070095;28;20048;-84
2023/08/20 05:59:26;;;;;;;7.20;5.13;;;;;;;22.69;46.75;101731.41;5066715;28;20044;-85
2023/08/20 06:01:58;;;;;;;8.10;5.32;;;;;;;22.73;46.67;101738.34;5096206;28;20093;-84
2023/08/20 06:04:27;;;;;;;7.30;5.45;;;;;;;22.71;46.91;101740.44;5129036;28;20061;-84
2023/08/20 06:06:56;;;;;;;8.32;5.72;;;;;;;22.72;46.84;101733.81;5116381;28;20024;-83
2023/08/20 06:09:25;;;;;;;7.65;5.72;;;;;;;22.73;47.24;101732.75;5107096;28;20109;-83
2023/08/20 06:11:54;;;;;;;6.70;4.97;;;;;;;22.74;47.20;101743.75;5093892;28;20047;-83
2023/08/20 06:14:22;;;;;;;7.20;5.40;;;;;;;22.75;47.08;101752.97;5082030;28;20048;-83
2023/08/20 06:16:50;;;;;;;6.03;4.65;;;;;;;22.75;46.95;101747.41;5073984;28;20624;-84
2023/08/20 06:19:18;;;;;;;6.72;5.15;;;;;;;22.77;46.88;101756.41;5097253;28;20047;-83
2023/08/20 06:21:46;;;;;;;7.72;5.13;;;;;;;22.76;47.29;101755.53;5068455;28;20044;-84
2023/08/20 06:24:14;;;;;;;7.15;5.10;;;;;;;22.78;47.19;101749.78;5086531;28;20616;-84
2023/08/20 06:26:44;;;;;;;8.05;4.90;;;;;;;22.84;47.37;101762.94;5099652;28;20052;-84
2023/08/20 06:29:12;;;;;;;6.47;5.32;;;;;;;22.81;47.55;101767.03;5099719;28;20047;-84
2023/08/20 06:31:40;;;;;;;7.82;5.43;;;;;;;22.85;47.51;101757.19;5090463;28;20122;-84
2023/08/20 06:34:08;;;;;;;7.38;4.88;;;;;;;22.86;47.32;101758.06;5077936;28;20044;-85
2023/08/20 06:36:37;;;;;;;7.00;5.13;;;;;;;22.87;47.55;101757.00;5096694;28;20131;-84
2023/08/20 06:39:05;;;;;;;6.40;4.57;;;;;;;22.88;47.25;101754.00;5077261;28;20071;-83
2023/08/20 06:41:33;;;;;;;6.50;5.13;;;;;;;22.93;47.48;101757.06;5096694;28;20052;-83
2023/08/20 06:44:03;;;;;;;7.53;5.13;;;;;;;22.98;47.40;101753.72;5074442;28;20081;-83
2023/08/20 06:46:31;;;;;;;7.38;5.35;;;;;;;22.98;47.47;101759.31;5091964;28;20044;-84
2023/08/20 06:49:02;;;;;;;8.82;5.53;;;;;;;23.01;47.58;101765.34;5089729;28;20048;-83
2023/08/20 06:51:31;;;;;;;8.20;5.60;;;;;;;23.01;47.68;101765.34;5080599;28;20621;-85
2023/08/20 07:13:16;;;;;;;5.53;4.10;;;;;;;23.60;47.15;101782.00;5002180;28;20053;-83
2023/08/20 07:18:57;;;;;;;7.20;5.32;;;;;;;23.91;48.03;101778.91;5074545;28;20047;-86
2023/08/20 07:21:25;;;;;;;9.48;5.95;;;;;;;24.05;47.74;101766.78;5080896;28;20055;-86
2023/08/20 07:23:53;;;;;;;7.38;5.05;;;;;;;24.15;47.58;101772.88;5071071;28;20202;-81
2023/08/20 07:26:21;;;;;;;9.10;5.90;;;;;;;24.28;47.39;101771.28;5077092;28;20048;-81
2023/08/20 07:28:59;;;;;;;8.13;5.55;;;;;;;24.40;47.08;101767.72;5074360;28;20048;-80
2023/08/20 07:31:29;;;;;;;9.70;5.95;;;;;;;24.48;46.86;101763.94;5075868;28;20459;-80
2023/08/20 07:33:58;;;;;;;7.13;5.53;;;;;;;24.60;46.54;101765.09;5080659;28;20044;-81
2023/08/20 07:36:32;;;;;;;7.80;5.80;;;;;;;24.69;46.63;101774.19;5078569;28;20522;-80
2023/08/20 07:39:00;;;;;;;8.80;5.53;;;;;;;24.76;46.09;101769.47;5092337;28;20048;-80
2023/08/20 07:41:30;;;;;;;8.30;6.18;;;;;;;24.86;46.60;101775.59;5095666;28;20357;-80
2023/08/20 07:43:59;;;;;;;6.65;5.13;;;;;;;24.97;46.14;101776.97;5086194;28;20830;-81
2023/08/20 07:46:27;;;;;;;7.63;5.68;;;;;;;25.02;46.16;101769.66;5081272;28;20111;-82
2023/08/20 07:48:55;;;;;;;7.25;5.13;;;;;;;25.10;46.45;101768.63;5103112;28;20073;-80
2023/08/20 07:51:23;;;;;;;7.88;5.65;;;;;;;25.17;45.97;101781.59;5094085;28;20028;-81
2023/08/20 07:53:51;;;;;;;7.03;5.35;;;;;;;25.25;46.02;101774.94;5100056;28;20374;-81
2023/08/20 07:56:19;;;;;;;6.68;4.90;;;;;;;25.34;45.78;101776.47;5084301;28;20059;-81
2023/08/20 07:58:46;;;;;;;6.97;5.00;;;;;;;25.41;45.82;101774.56;5075690;28;20055;-81
2023/08/20 08:01:16;;;;;;;6.20;4.57;;;;;;;25.51;45.54;101774.19;5071534;28;20151;-80
2023/08/20 08:03:44;;;;;;;6.50;4.95;;;;;;;25.57;45.59;101773.34;5088707;28;20081;-80
2023/08/20 08:06:12;;;;;;;6.00;4.72;;;;;;;25.62;45.51;101771.66;5084077;28;20075;-81
2023/08/20 08:08:44;;;;;;;7.28;5.28;;;;;;;25.74;44.54;101782.22;5075183;28;20060;-80
2023/08/20 08:11:12;;;;;;;5.73;4.53;;;;;;;25.75;44.64;101770.78;5075560;28;20074;-81
2023/08/20 08:13:40;;;;;;;7.57;5.25;;;;;;;25.84;44.94;101775.13;5086079;28;20131;-81
2023/08/20 08:16:08;;;;;;;9.85;5.03;;;;;;;25.91;44.76;101777.94;5072039;28;20050;-80
2023/08/20 08:18:37;;;;;;;7.20;4.70;;;;;;;26.01;44.42;101781.19;5090056;28;20044;-80
2023/08/20 08:21:05;;;;;;;6.70;5.03;;;;;;;26.05;44.12;101773.22;5092786;28;20048;-80
2023/08/20 08:23:33;;;;;;;6.45;4.43;;;;;;;26.12;44.26;101780.59;5074915;28;20044;-81
2023/08/20 08:26:01;;;;;;;7.05;5.13;;;;;;;26.19;44.72;101772.16;5077405;28;20075;-80
2023/08/20 08:28:29;;;;;;;5.93;4.90;;;;;;;26.26;44.19;101775.84;5083344;28;20099;-80
2023/08/20 08:30:57;;;;;;;5.88;4.53;;;;;;;26.33;43.86;101779.50;5083178;28;20074;-81
2023/08/20 08:33:25;;;;;;;5.68;4.47;;;;;;;26.41;43.83;101776.47;5094025;28;20615;-81
2023/08/20 08:35:54;;;;;;;5.72;4.38;;;;;;;26.50;43.63;101777.97;5080838;28;20058;-82
2023/08/20 08:38:22;;;;;;;5.95;4.13;;;;;;;26.56;43.43;101784.66;5088604;28;20043;-81
2023/08/20 08:40:55;;;;;;;5.47;4.18;;;;;;;26.62;43.63;101786.63;5097596;28;20036;-80
2023/08/20 08:43:24;;;;;;;5.07;3.83;;;;;;;26.70;43.07;101784.47;5081631;28;20063;-81
2023/08/20 08:45:53;;;;;;;4.82;3.83;;;;;;;26.78;42.94;101779.69;5076674;28;20040;-79
2023/08/20 08:48:22;;;;;;;6.35;4.45;;;;;;;26.86;42.92;101776.66;5099172;28;20113;-81
2023/08/20 08:50:51;;;;;;;5.68;4.00;;;;;;;26.92;42.43;101772.94;5092853;28;20052;-80
2023/08/20 08:53:20;;;;;;;5.45;3.58;;;;;;;26.99;42.61;101777.44;5097212;28;20043;-81
2023/08/20 08:55:48;;;;;;;6.78;4.32;;;;;;;27.05;41.95;101781.31;5090751;28;20101;-81
2023/08/20 08:58:16;;;;;;;5.47;4.20;;;;;;;27.10;41.78;101771.16;5070604;28;20411;-80
2023/08/20 09:00:44;;;;;;;5.43;4.10;;;;;;;27.18;41.61;101774.81;5079567;28;20114;-80
2023/08/20 09:03:12;;;;;;;5.45;3.58;;;;;;;27.24;41.57;101779.56;5084944;28;20054;-81
2023/08/20 09:05:50;;;;;;;5.38;4.05;;;;;;;27.32;40.19;101780.16;5094989;28;20119;-81
2023/08/20 09:08:22;;;;;;;4.80;3.88;;;;;;;27.35;40.37;101782.53;5094844;28;20036;-82
2023/08/20 09:11:00;;;;;;;4.85;3.25;;;;;;;27.41;40.21;101778.81;5104597;28;20124;-81
2023/08/20 09:13:34;;;;;;;4.50;3.35;;;;;;;27.47;39.97;101783.53;5070117;28;20100;-81
2023/08/20 09:16:05;;;;;;;4.88;3.53;;;;;;;27.53;40.50;101787.41;5083621;28;20146;-81
2023/08/20 09:18:34;;;;;;;5.05;3.45;;;;;;;27.54;40.78;101785.44;5086514;28;20085;-81
2023/08/20 09:21:02;;;;;;;4.53;3.30;;;;;;;27.60;39.95;101782.63;5086173;28;20040;-82
2023/08/20 09:23:31;;;;;;;4.85;3.63;;;;;;;27.66;39.90;101786.47;5094603;28;20045;-80
2023/08/20 09:26:02;;;;;;;4.68;2.97;;;;;;;27.69;39.00;101789.75;5073349;28;20071;-81
2023/08/20 09:28:41;;;;;;;4.88;3.58;;;;;;;27.68;39.53;101787.13;5080411;28;20144;-80
2023/08/20 09:31:09;;;;;;;5.57;3.40;;;;;;;27.69;39.57;101794.50;5079520;28;20066;-82
2023/08/20 09:33:50;;;;;;;3.83;3.13;;;;;;;27.77;38.60;101788.59;5106585;28;20048;-80
2023/08/20 09:36:17;;;;;;;4.47;3.25;;;;;;;27.76;39.41;101792.50;5094269;28;20052;-81
2023/08/20 09:38:47;;;;;;;4.43;3.53;;;;;;;27.82;38.97;101786.81;5095286;28;20146;-81
2023/08/20 09:41:18;;;;;;;;;;;;;;;27.53;39.89;101793.03;5089293;28;20851;-80
2023/08/20 09:43:48;;;;;;;3.92;2.50;;;;;;;27.87;39.57;101786.13;5094203;28;19973;-80
2023/08/20 09:46:19;;;;;;;4.47;3.22;;;;;;;27.94;39.59;101795.41;5080088;28;20055;-80
2023/08/20 09:48:49;;;;;;;4.47;3.10;;;;;;;28.01;39.04;101801.84;5080734;28;20048;-81
2023/08/20 09:51:21;;;;;;;5.13;3.42;;;;;;;28.06;38.45;101802.03;5100418;28;20085;-80
2023/08/20 09:54:01;;;;;;;4.75;3.35;;;;;;;28.10;37.96;101802.44;5100176;28;20136;-81
2023/08/20 09:56:30;;;;;;;4.90;3.45;;;;;;;28.13;38.63;101801.97;5080767;28;20499;-79
2023/08/20 09:58:59;;;;;;;4.82;3.80;;;;;;;28.16;38.07;101804.31;5073841;28;20051;-80
2023/08/20 10:01:28;;;;;;;4.53;3.25;;;;;;;28.19;38.15;101810.34;5092916;28;20044;-82
2023/08/20 10:03:57;;;;;;;6.65;3.50;;;;;;;28.20;37.36;101805.56;5084763;28;20059;-81
2023/08/20 10:06:25;;;;;;;4.85;3.40;;;;;;;28.21;37.55;101807.34;5083909;28;20044;-81
2023/08/20 10:08:55;;;;;;;4.32;3.20;;;;;;;28.22;37.71;101811.88;5085549;28;20055;-81
2023/08/20 10:11:23;;;;;;;5.53;2.95;;;;;;;28.19;37.44;101799.09;5084817;28;20051;-80
2023/08/20 10:13:51;;;;;;;3.67;2.63;;;;;;;28.18;37.01;101810.59;5088192;28;20078;-81
2023/08/20 10:16:21;;;;;;;3.97;2.78;;;;;;;28.17;36.98;101811.69;5080783;28;20059;-81
2023/08/20 10:18:49;;;;;;;3.97;2.85;;;;;;;28.16;37.12;101812.78;5079421;28;20126;-80
2023/08/20 10:21:17;;;;;;;4.03;3.05;;;;;;;28.15;37.33;101809.09;5078829;28;20048;-81
2023/08/20 10:23:49;;;;;;;4.20;3.22;;;;;;;28.17;36.68;101808.88;5089393;28;20176;-80
2023/08/20 10:26:21;;;;;;;;;;;;;;;27.87;38.23;101805.81;5082182;28;20101;-80
2023/08/20 10:28:49;;;;;;;;;;;;;;;27.82;38.32;101811.28;5081231;28;20371;-80
2023/08/20 10:31:18;;;;;;;3.22;2.42;;;;;;;28.13;37.60;101802.81;5089547;28;19924;-81
2023/08/20 10:33:58;;;;;;;5.00;3.20;;;;;;;28.23;36.41;101805.16;5103527;28;20036;-80
2023/08/20 10:36:28;;;;;;;5.22;3.60;;;;;;;28.21;36.74;101804.53;5099687;28;20819;-80
2023/08/20 10:38:58;;;;;;;4.68;3.28;;;;;;;28.22;36.53;101804.31;5107856;28;20039;-80
2023/08/20 10:41:28;;;;;;;4.90;3.35;;;;;;;28.24;36.72;101810.56;5094104;28;20036;-81
2023/08/20 10:43:59;;;;;;;6.22;3.72;;;;;;;28.24;36.49;101806.88;5089754;28;20050;-80
2023/08/20 10:46:30;;;;;;;5.23;3.73;;;;;;;28.24;36.88;101804.06;5072592;28;20066;-81
2023/08/20 10:48:59;;;;;;;4.63;3.38;;;;;;;28.27;36.94;101811.22;5095741;28;20118;-81
2023/08/20 10:51:29;;;;;;;5.70;3.22;;;;;;;28.34;36.75;101806.38;5103434;28;20047;-82
2023/08/20 10:54:05;;;;;;;5.13;3.83;;;;;;;28.41;36.00;101810.00;5101509;28;20051;-81
2023/08/20 10:56:44;;;;;;;5.00;3.67;;;;;;;28.45;35.81;101814.91;5077781;28;20048;-80
2023/08/20 10:59:15;;;;;;;4.80;3.72;;;;;;;28.50;35.59;101812.28;5077044;28;20047;-82
2023/08/20 11:01:47;;;;;;;5.13;3.67;;;;;;;28.54;35.33;101807.03;5085808;28;20134;-81
2023/08/20 11:04:16;;;;;;;5.45;3.92;;;;;;;28.56;35.81;101808.56;5074479;28;20043;-81
2023/08/20 11:06:45;;;;;;;4.60;3.58;;;;;;;28.59;35.66;101801.59;5078563;28;20454;-81
2023/08/20 11:09:15;;;;;;;5.22;3.63;;;;;;;28.65;35.61;101802.63;5100243;28;20127;-80
2023/08/20 11:11:44;;;;;;;4.47;3.92;;;;;;;28.69;35.16;101798.22;5074923;28;20120;-82
2023/08/20 11:14:14;;;;;;;4.88;3.78;;;;;;;28.73;35.53;101797.56;5108328;28;20040;-81
2023/08/20 11:16:44;;;;;;;4.55;3.70;;;;;;;28.78;35.51;101805.31;5096394;28;20451;-81
2023/08/20 11:19:12;;;;;;;4.80;3.80;;;;;;;28.83;35.39;101806.38;5102689;28;20047;-80
2023/08/20 11:21:41;;;;;;;5.85;4.20;;;;;;;28.88;35.03;101802.84;5102877;28;20052;-81
2023/08/20 11:24:11;;;;;;;3.97;3.33;;;;;;;28.94;34.81;101799.94;5088363;28;20072;-82
2023/08/20 11:26:41;;;;;;;4.45;3.33;;;;;;;29.00;34.29;101812.25;5085699;28;20044;-80
2023/08/20 11:29:12;;;;;;;5.03;3.67;;;;;;;29.05;34.25;101811.53;5074795;28;20048;-81
2023/08/20 11:31:40;;;;;;;4.30;3.80;;;;;;;29.04;34.44;101809.81;5080641;28;20074;-82
2023/08/20 11:34:09;;;;;;;4.35;3.55;;;;;;;29.08;34.02;101806.31;5074502;28;20044;-82
2023/08/20 11:36:39;;;;;;;5.60;3.75;;;;;;;29.10;34.27;101803.25;5069938;28;20411;-80
2023/08/20 11:39:07;;;;;;;5.60;3.70;;;;;;;29.11;33.99;101802.13;5081046;28;20130;-81
2023/08/20 11:41:38;;;;;;;4.13;3.47;;;;;;;29.12;34.02;101792.56;5076877;28;20109;-80
2023/08/20 11:44:06;;;;;;;5.05;3.55;;;;;;;29.10;34.02;101787.16;5086232;28;20093;-80
2023/08/20 11:46:43;;;;;;;5.03;3.70;;;;;;;29.13;33.60;101795.16;5072952;28;20077;-80
2023/08/20 11:49:12;;;;;;;4.97;3.50;;;;;;;29.13;34.15;101798.00;5077103;28;20093;-80
2023/08/20 11:51:42;;;;;;;4.57;3.92;;;;;;;29.16;33.84;101793.84;5079087;28;20090;-79
2023/08/20 11:54:13;;;;;;;4.40;3.65;;;;;;;29.17;33.84;101790.78;5075462;28;20146;-81
2023/08/20 11:56:45;;;;;;;4.17;3.63;;;;;;;29.19;33.88;101790.53;5080425;28;20047;-80
2023/08/20 11:59:14;;;;;;;4.93;4.05;;;;;;;29.20;34.49;101787.47;5077866;28;20064;-80
2023/08/20 12:01:43;;;;;;;4.88;4.05;;;;;;;29.24;33.77;101780.31;5094935;28;20486;-80
2023/08/20 12:04:11;;;;;;;5.53;4.15;;;;;;;29.26;33.59;101786.56;5098866;28;20047;-81
2023/08/20 12:06:40;;;;;;;5.18;4.68;;;;;;;29.27;33.51;101779.81;5073989;28;20036;-81
2023/08/20 12:09:24;;;;;;;6.32;4.60;;;;;;;29.28;33.71;101778.75;5084757;28;20055;-81
2023/08/20 12:11:55;;;;;;;6.32;4.80;;;;;;;29.27;33.74;101778.97;5065764;28;20049;-82
2023/08/20 12:14:24;;;;;;;6.50;4.72;;;;;;;29.26;33.94;101783.75;5089819;28;20496;-81
2023/08/20 12:16:55;;;;;;;5.40;4.63;;;;;;;29.30;33.37;101779.38;5074159;28;20532;-81
2023/08/20 12:19:23;;;;;;;5.60;5.00;;;;;;;29.26;33.44;101772.47;5065487;28;20489;-81